الصفحة الرئيسية
METAR-TAF:

METAR-TAF

مطار :

مطار ديوري حماني

نيامي, النيجر

دائرة عرض: 13-29N, خط طول: 002-10E, ارتفاع: 223 متر

مراقبة الطقس الحالي

تاريخ ووقت الإصدار 43 دقيقة قبل الساعة 02:00UTC
ريح 7 عقدة من الجنوب
درجة الحرارة 32°درجة مئوية
الرطوبة 41%
ضغط 1010 hPa
الرؤية 10 كم أو أكثر
الغيوم لا تقل 1500 م ولا وجود لمزنة ركامية السحاب الأسود

METAR: DRRN 260200Z 18007KT CAVOK 32/17 Q1010 NOSIG

زمن: 03:43 (02:43 UTC)

توقعات

تاريخ ووقت الإصدار 9ساعات و 43 دقيقة قبل الساعة 17:00UTC
التوقعات صالحة من25 الساعة 18 UTC إلى 26 الساعة 24 UTC
ريح 10 عقدة من الغرب/الجنوب الغربي
الرؤية 10 كم أو أكثر
الغيوم لا تقل 1500 م ولا وجود لمزنة ركامية السحاب الأسود
مؤقت
من 26 الساعة 16 UTC إلى 26 الساعة 20 UTC
ريح 25 عقدةمن اتجاهات متغيرة
الرؤية: 2000 متر
غيوم متفرقة على ارتفاع 3000 قدم
غيوم قليلة على ارتفاع 4000 قدم, مزنة ركامية.
هبوب الغبار, عاصفة رعدية, مطر خفيف,

TAF: DRRN 251700Z 2518/2624 24010KT CAVOK TEMPO 2616/2620 VRB25KT 2000 BLDU -TSRA SCT030 FEW040CB

أرصاد الطقس والتوقعات من أكثر من 4000 مطار (تقارير الطقس للمطار METAR والتنبؤ بالطقس بالمطارTAF).

المحطات المتاحة هي النقط الصفراء والحمراء على الخريطة.

حرك المؤشر فوق النقطة لمعرفة اسم المحطة.

ثم انقر لمعرفة أرصاد وتوقعات الطقس.

لتغيير الخارطة: اضغط على الأزرار الخضراء مع رمز الصليب الأسود للتكبير. على الزر الأخضر مع شرطة للتصغير، أو على الأسهم الخضراء للخرائط المجاورة.


METAR-TAF: